EmailTwitter


Observations de surface / France / LFBD (07510)

Régions: Québec | Canada | États-Unis | Europe | France | UK | Ailleurs
Station
Affichage
Infos & localisation pour LFBD (07510) | Aide pour décoder les METARs

Observations prises le 2019-12-14 à 04H00 UTC à BORDEAUX/MERIGNA, FR (LFBD)

Etat du ciel: couvert.

Température: 13.0 Celsius

Point de rosée: 12.0 Celsius

Humidité relative: 94%

Facteur vent: 10.

Vents: Ouest à 35 km/h ou 19 noeuds.

Pression au niveau moyen de la mer: 100.80 kilopascals.

Visibilité horizontale: 6.21 milles terrestres ou 9.94 kilomètres.

Hauteur du plafond: 274 mètres ( 900 pieds ).

Observation METAR:

LFBD 140400Z AUTO 27019KT 9999 OVC009 13/12 Q1008 TEMPO 3000 RA BECMG

28020G35KT=